sensor_id;sensor_type;location;lat;lon;timestamp;pressure;altitude;pressure_sealevel;temperature;humidity
52105;BME280;38103;42.776;23.112;2023-02-28T00:01:28;94389.38;;;4.38;100.00
52105;BME280;38103;42.776;23.112;2023-02-28T00:03:54;94387.63;;;4.45;100.00
52105;BME280;38103;42.776;23.112;2023-02-28T00:06:20;94386.38;;;4.41;100.00
52105;BME280;38103;42.776;23.112;2023-02-28T00:08:46;94401.97;;;4.49;100.00
52105;BME280;38103;42.776;23.112;2023-02-28T00:11:13;94397.94;;;4.31;100.00
52105;BME280;38103;42.776;23.112;2023-02-28T00:13:42;94397.78;;;4.18;100.00
52105;BME280;38103;42.776;23.112;2023-02-28T00:16:12;94398.03;;;4.23;100.00
52105;BME280;38103;42.776;23.112;2023-02-28T00:18:38;94390.81;;;3.73;100.00
52105;BME280;38103;42.776;23.112;2023-02-28T00:21:05;94405.94;;;3.62;100.00
52105;BME280;38103;42.776;23.112;2023-02-28T00:23:31;94419.09;;;3.69;100.00
52105;BME280;38103;42.776;23.112;2023-02-28T00:25:56;94423.88;;;3.35;100.00
52105;BME280;38103;42.776;23.112;2023-02-28T00:28:22;94418.81;;;3.49;100.00
52105;BME280;38103;42.776;23.112;2023-02-28T00:30:48;94416.31;;;3.55;100.00
52105;BME280;38103;42.776;23.112;2023-02-28T00:33:14;94419.66;;;3.64;100.00
52105;BME280;38103;42.776;23.112;2023-02-28T00:35:40;94426.53;;;3.27;100.00
52105;BME280;38103;42.776;23.112;2023-02-28T00:38:05;94418.41;;;3.21;100.00
52105;BME280;38103;42.776;23.112;2023-02-28T00:40:30;94416.16;;;3.18;100.00
52105;BME280;38103;42.776;23.112;2023-02-28T00:42:56;94404.22;;;2.77;100.00
52105;BME280;38103;42.776;23.112;2023-02-28T00:45:21;94412.06;;;3.00;100.00
52105;BME280;38103;42.776;23.112;2023-02-28T00:47:47;94414.13;;;3.05;100.00
52105;BME280;38103;42.776;23.112;2023-02-28T00:50:19;94366.22;;;2.74;100.00
52105;BME280;38103;42.776;23.112;2023-02-28T00:52:45;94409.22;;;3.26;100.00
52105;BME280;38103;42.776;23.112;2023-02-28T00:55:11;94415.47;;;3.40;100.00
52105;BME280;38103;42.776;23.112;2023-02-28T00:57:36;94415.56;;;3.46;100.00
52105;BME280;38103;42.776;23.112;2023-02-28T01:00:03;94396.91;;;3.50;100.00
52105;BME280;38103;42.776;23.112;2023-02-28T01:02:29;94404.84;;;3.72;100.00
52105;BME280;38103;42.776;23.112;2023-02-28T01:04:54;94358.97;;;3.54;100.00
52105;BME280;38103;42.776;23.112;2023-02-28T01:07:19;94397.13;;;3.94;100.00
52105;BME280;38103;42.776;23.112;2023-02-28T01:09:45;94403.59;;;3.98;100.00
52105;BME280;38103;42.776;23.112;2023-02-28T01:12:10;94403.88;;;3.73;100.00
52105;BME280;38103;42.776;23.112;2023-02-28T01:14:36;94408.00;;;3.52;100.00
52105;BME280;38103;42.776;23.112;2023-02-28T01:17:01;94389.72;;;3.67;100.00
52105;BME280;38103;42.776;23.112;2023-02-28T01:19:27;94396.91;;;3.95;100.00
52105;BME280;38103;42.776;23.112;2023-02-28T01:21:52;94409.91;;;4.04;100.00
52105;BME280;38103;42.776;23.112;2023-02-28T01:24:18;94409.97;;;4.10;100.00
52105;BME280;38103;42.776;23.112;2023-02-28T01:26:43;94404.03;;;4.17;100.00
52105;BME280;38103;42.776;23.112;2023-02-28T01:29:08;94406.91;;;4.22;100.00
52105;BME280;38103;42.776;23.112;2023-02-28T01:31:34;94406.91;;;4.22;100.00
52105;BME280;38103;42.776;23.112;2023-02-28T01:33:59;94398.03;;;4.23;100.00
52105;BME280;38103;42.776;23.112;2023-02-28T01:36:25;94404.19;;;4.30;100.00
52105;BME280;38103;42.776;23.112;2023-02-28T01:38:51;94392.97;;;4.36;100.00
52105;BME280;38103;42.776;23.112;2023-02-28T01:41:25;94395.84;;;4.42;100.00
52105;BME280;38103;42.776;23.112;2023-02-28T01:44:00;94396.84;;;4.41;100.00
52105;BME280;38103;42.776;23.112;2023-02-28T01:46:29;94402.88;;;4.41;100.00
52105;BME280;38103;42.776;23.112;2023-02-28T01:49:00;94411.66;;;4.33;100.00
52105;BME280;38103;42.776;23.112;2023-02-28T01:51:28;94399.44;;;4.41;100.00
52105;BME280;38103;42.776;23.112;2023-02-28T01:53:59;94409.81;;;4.49;100.00
52105;BME280;38103;42.776;23.112;2023-02-28T01:56:30;94409.25;;;4.54;100.00
52105;BME280;38103;42.776;23.112;2023-02-28T01:58:58;94408.34;;;4.62;100.00
52105;BME280;38103;42.776;23.112;2023-02-28T02:01:25;94402.31;;;4.61;100.00
52105;BME280;38103;42.776;23.112;2023-02-28T02:03:55;94401.75;;;4.66;100.00
52105;BME280;38103;42.776;23.112;2023-02-28T02:06:25;94386.16;;;4.57;100.00
52105;BME280;38103;42.776;23.112;2023-02-28T02:08:51;94407.41;;;4.69;100.00
52105;BME280;38103;42.776;23.112;2023-02-28T02:11:19;94415.09;;;4.71;100.00
52105;BME280;38103;42.776;23.112;2023-02-28T02:13:59;94392.56;;;4.77;100.00
52105;BME280;38103;42.776;23.112;2023-02-28T02:16:51;94402.00;;;4.71;100.00
52105;BME280;38103;42.776;23.112;2023-02-28T02:19:51;94402.78;;;4.50;100.00
52105;BME280;38103;42.776;23.112;2023-02-28T02:30:47;94393.75;;;4.74;100.00
52105;BME280;38103;42.776;23.112;2023-02-28T02:36:25;94411.47;;;4.72;100.00
52105;BME280;38103;42.776;23.112;2023-02-28T02:41:45;94374.69;;;4.58;100.00
52105;BME280;38103;42.776;23.112;2023-02-28T02:46:44;94398.72;;;4.84;100.00
52105;BME280;38103;42.776;23.112;2023-02-28T02:49:16;94404.72;;;4.85;100.00
52105;BME280;38103;42.776;23.112;2023-02-28T02:51:46;94405.75;;;4.84;100.00
52105;BME280;38103;42.776;23.112;2023-02-28T02:54:28;94405.03;;;4.75;100.00
52105;BME280;38103;42.776;23.112;2023-02-28T02:56:57;94401.69;;;4.81;100.00
52105;BME280;38103;42.776;23.112;2023-02-28T02:59:24;94379.94;;;4.58;100.00
52105;BME280;38103;42.776;23.112;2023-02-28T03:01:53;94412.84;;;4.90;100.00
52105;BME280;38103;42.776;23.112;2023-02-28T03:04:22;94369.13;;;4.68;100.00
52105;BME280;38103;42.776;23.112;2023-02-28T03:06:48;94403.00;;;4.92;100.00
52105;BME280;38103;42.776;23.112;2023-02-28T03:09:23;94412.84;;;4.90;100.00
52105;BME280;38103;42.776;23.112;2023-02-28T03:11:49;94410.78;;;4.85;100.00
52105;BME280;38103;42.776;23.112;2023-02-28T03:14:20;94415.59;;;4.82;100.00
52105;BME280;38103;42.776;23.112;2023-02-28T03:27:47;94436.94;;;4.78;100.00
52105;BME280;38103;42.776;23.112;2023-02-28T03:33:06;94442.97;;;4.79;100.00
52105;BME280;38103;42.776;23.112;2023-02-28T03:35:37;94441.34;;;4.78;100.00
52105;BME280;38103;42.776;23.112;2023-02-28T03:38:18;94444.78;;;4.78;100.00
52105;BME280;38103;42.776;23.112;2023-02-28T03:40:53;94448.66;;;4.83;100.00
52105;BME280;38103;42.776;23.112;2023-02-28T03:43:25;94447.47;;;4.85;100.00
52105;BME280;38103;42.776;23.112;2023-02-28T03:45:54;94418.69;;;4.70;100.00
52105;BME280;38103;42.776;23.112;2023-02-28T03:48:22;94453.53;;;4.86;100.00
52105;BME280;38103;42.776;23.112;2023-02-28T03:50:53;94416.94;;;4.55;100.00
52105;BME280;38103;42.776;23.112;2023-02-28T03:53:32;94454.66;;;4.76;100.00
52105;BME280;38103;42.776;23.112;2023-02-28T04:01:44;94463.94;;;4.27;100.00
52105;BME280;38103;42.776;23.112;2023-02-28T04:04:11;94432.28;;;3.91;100.00
52105;BME280;38103;42.776;23.112;2023-02-28T04:06:38;94456.00;;;3.89;100.00
52105;BME280;38103;42.776;23.112;2023-02-28T04:09:05;94457.91;;;3.80;100.00
52105;BME280;38103;42.776;23.112;2023-02-28T04:11:37;94457.44;;;3.77;100.00
52105;BME280;38103;42.776;23.112;2023-02-28T04:14:05;94460.31;;;3.82;100.00
52105;BME280;38103;42.776;23.112;2023-02-28T04:16:32;94466.28;;;3.76;100.00
52105;BME280;38103;42.776;23.112;2023-02-28T04:18:58;94466.84;;;3.86;100.00
52105;BME280;38103;42.776;23.112;2023-02-28T04:21:38;94469.19;;;3.96;100.00
52105;BME280;38103;42.776;23.112;2023-02-28T04:24:05;94468.81;;;3.84;100.00
52105;BME280;38103;42.776;23.112;2023-02-28T04:26:32;94449.94;;;3.58;100.00
52105;BME280;38103;42.776;23.112;2023-02-28T04:28:58;94465.56;;;3.82;100.00
52105;BME280;38103;42.776;23.112;2023-02-28T04:31:24;94473.38;;;3.52;100.00
52105;BME280;38103;42.776;23.112;2023-02-28T04:33:49;94474.34;;;3.51;100.00
52105;BME280;38103;42.776;23.112;2023-02-28T04:36:15;94478.22;;;3.40;100.00
52105;BME280;38103;42.776;23.112;2023-02-28T04:38:43;94476.69;;;3.45;100.00
52105;BME280;38103;42.776;23.112;2023-02-28T04:41:08;94473.44;;;3.43;100.00
52105;BME280;38103;42.776;23.112;2023-02-28T04:43:34;94475.75;;;3.38;100.00
52105;BME280;38103;42.776;23.112;2023-02-28T04:46:02;94476.47;;;3.32;100.00
52105;BME280;38103;42.776;23.112;2023-02-28T04:48:28;94476.34;;;3.25;100.00
52105;BME280;38103;42.776;23.112;2023-02-28T04:50:54;94481.72;;;3.32;100.00
52105;BME280;38103;42.776;23.112;2023-02-28T04:53:20;94474.94;;;3.38;100.00
52105;BME280;38103;42.776;23.112;2023-02-28T04:55:46;94453.25;;;3.37;100.00
52105;BME280;38103;42.776;23.112;2023-02-28T04:58:12;94474.00;;;3.54;100.00
52105;BME280;38103;42.776;23.112;2023-02-28T05:00:38;94481.13;;;3.60;100.00
52105;BME280;38103;42.776;23.112;2023-02-28T05:03:03;94482.47;;;3.56;100.00
52105;BME280;38103;42.776;23.112;2023-02-28T05:05:29;94485.28;;;3.54;100.00
52105;BME280;38103;42.776;23.112;2023-02-28T05:07:54;94496.19;;;3.58;100.00
52105;BME280;38103;42.776;23.112;2023-02-28T05:10:21;94492.94;;;3.56;100.00
52105;BME280;38103;42.776;23.112;2023-02-28T05:12:46;94473.78;;;3.40;100.00
52105;BME280;38103;42.776;23.112;2023-02-28T05:15:14;94499.09;;;3.63;100.00
52105;BME280;38103;42.776;23.112;2023-02-28T05:17:40;94454.16;;;3.44;100.00
52105;BME280;38103;42.776;23.112;2023-02-28T05:20:06;94498.38;;;3.69;100.00
52105;BME280;38103;42.776;23.112;2023-02-28T05:22:31;94500.41;;;3.59;100.00
52105;BME280;38103;42.776;23.112;2023-02-28T05:24:57;94502.97;;;3.67;100.00
52105;BME280;38103;42.776;23.112;2023-02-28T05:27:22;94503.09;;;3.51;100.00
52105;BME280;38103;42.776;23.112;2023-02-28T05:29:48;94495.94;;;3.29;100.00
52105;BME280;38103;42.776;23.112;2023-02-28T05:32:14;94512.59;;;3.52;100.00
52105;BME280;38103;42.776;23.112;2023-02-28T05:34:40;94516.41;;;3.64;100.00
52105;BME280;38103;42.776;23.112;2023-02-28T05:37:10;94514.63;;;3.80;100.00
52105;BME280;38103;42.776;23.112;2023-02-28T05:39:36;94515.81;;;3.93;100.00
52105;BME280;38103;42.776;23.112;2023-02-28T05:42:02;94514.09;;;4.00;100.00
52105;BME280;38103;42.776;23.112;2023-02-28T05:44:27;94517.38;;;4.02;100.00
52105;BME280;38103;42.776;23.112;2023-02-28T05:46:53;94518.97;;;4.03;100.00
52105;BME280;38103;42.776;23.112;2023-02-28T05:49:18;94514.66;;;4.10;100.00
52105;BME280;38103;42.776;23.112;2023-02-28T05:51:43;94513.31;;;4.15;100.00
52105;BME280;38103;42.776;23.112;2023-02-28T05:54:09;94521.94;;;4.00;100.00
52105;BME280;38103;42.776;23.112;2023-02-28T05:56:34;94473.31;;;3.60;100.00
52105;BME280;38103;42.776;23.112;2023-02-28T05:59:00;94524.38;;;3.86;100.00
52105;BME280;38103;42.776;23.112;2023-02-28T06:04:00;94508.41;;;3.66;100.00
52105;BME280;38103;42.776;23.112;2023-02-28T06:06:26;94526.78;;;3.73;100.00
52105;BME280;38103;42.776;23.112;2023-02-28T06:08:52;94519.72;;;3.97;100.00
52105;BME280;38103;42.776;23.112;2023-02-28T06:11:17;94524.56;;;4.00;100.00
52105;BME280;38103;42.776;23.112;2023-02-28T06:13:45;94516.91;;;3.98;100.00
52105;BME280;38103;42.776;23.112;2023-02-28T06:16:11;94520.63;;;4.04;100.00
52105;BME280;38103;42.776;23.112;2023-02-28T06:18:36;94528.75;;;4.09;100.00
52105;BME280;38103;42.776;23.112;2023-02-28T06:21:02;94532.25;;;4.01;100.00
52105;BME280;38103;42.776;23.112;2023-02-28T06:23:27;94536.41;;;4.11;100.00
52105;BME280;38103;42.776;23.112;2023-02-28T06:25:53;94544.31;;;3.87;100.00
52105;BME280;38103;42.776;23.112;2023-02-28T06:28:18;94541.13;;;3.77;100.00
52105;BME280;38103;42.776;23.112;2023-02-28T06:30:44;94541.41;;;3.82;100.00
52105;BME280;38103;42.776;23.112;2023-02-28T06:33:09;94543.84;;;3.68;100.00
52105;BME280;38103;42.776;23.112;2023-02-28T06:35:35;94527.97;;;3.46;100.00
52105;BME280;38103;42.776;23.112;2023-02-28T06:38:00;94533.91;;;3.79;100.00
52105;BME280;38103;42.776;23.112;2023-02-28T06:40:26;94543.84;;;3.68;100.00
52105;BME280;38103;42.776;23.112;2023-02-28T06:42:51;94544.19;;;3.65;100.00
52105;BME280;38103;42.776;23.112;2023-02-28T06:45:17;94548.69;;;3.72;100.00
52105;BME280;38103;42.776;23.112;2023-02-28T06:47:42;94553.56;;;3.75;100.00
52105;BME280;38103;42.776;23.112;2023-02-28T06:50:11;94551.53;;;3.85;100.00
52105;BME280;38103;42.776;23.112;2023-02-28T06:52:37;94514.56;;;3.50;100.00
52105;BME280;38103;42.776;23.112;2023-02-28T06:55:07;94559.16;;;3.72;100.00
52105;BME280;38103;42.776;23.112;2023-02-28T06:57:34;94559.88;;;3.65;100.00
52105;BME280;38103;42.776;23.112;2023-02-28T07:00:01;94557.84;;;3.52;100.00
52105;BME280;38103;42.776;23.112;2023-02-28T07:02:28;94558.81;;;3.75;100.00
52105;BME280;38103;42.776;23.112;2023-02-28T07:04:54;94510.81;;;3.67;100.00
52105;BME280;38103;42.776;23.112;2023-02-28T07:07:19;94553.31;;;3.85;100.00
52105;BME280;38103;42.776;23.112;2023-02-28T07:09:45;94552.88;;;3.81;100.00
52105;BME280;38103;42.776;23.112;2023-02-28T07:12:10;94556.41;;;3.88;100.00
52105;BME280;38103;42.776;23.112;2023-02-28T07:14:36;94554.72;;;3.96;100.00
52105;BME280;38103;42.776;23.112;2023-02-28T07:17:02;94519.50;;;3.83;100.00
52105;BME280;38103;42.776;23.112;2023-02-28T07:19:27;94567.97;;;3.94;100.00
52105;BME280;38103;42.776;23.112;2023-02-28T07:21:53;94565.72;;;4.06;100.00
52105;BME280;38103;42.776;23.112;2023-02-28T07:24:18;94567.53;;;4.21;100.00
52105;BME280;38103;42.776;23.112;2023-02-28T07:26:44;94562.78;;;4.24;100.00
52105;BME280;38103;42.776;23.112;2023-02-28T07:29:09;94558.91;;;4.35;100.00
52105;BME280;38103;42.776;23.112;2023-02-28T07:31:35;94559.44;;;4.46;100.00
52105;BME280;38103;42.776;23.112;2023-02-28T07:34:00;94551.13;;;4.57;100.00
52105;BME280;38103;42.776;23.112;2023-02-28T07:36:25;94532.06;;;4.49;100.00
52105;BME280;38103;42.776;23.112;2023-02-28T07:38:51;94559.59;;;4.75;100.00
52105;BME280;38103;42.776;23.112;2023-02-28T07:41:17;94553.09;;;4.86;100.00
52105;BME280;38103;42.776;23.112;2023-02-28T07:43:43;94523.13;;;4.73;100.00
52105;BME280;38103;42.776;23.112;2023-02-28T07:46:11;94558.13;;;5.02;100.00
52105;BME280;38103;42.776;23.112;2023-02-28T07:48:37;94557.63;;;5.14;100.00
52105;BME280;38103;42.776;23.112;2023-02-28T07:51:03;94523.38;;;4.78;100.00
52105;BME280;38103;42.776;23.112;2023-02-28T07:53:29;94533.00;;;4.93;100.00
52105;BME280;38103;42.776;23.112;2023-02-28T07:55:56;94547.63;;;5.02;100.00
52105;BME280;38103;42.776;23.112;2023-02-28T07:58:21;94556.41;;;4.95;100.00
52105;BME280;38103;42.776;23.112;2023-02-28T08:00:47;94557.00;;;5.12;100.00
52105;BME280;38103;42.776;23.112;2023-02-28T08:03:13;94556.63;;;5.15;100.00
52105;BME280;38103;42.776;23.112;2023-02-28T08:05:41;94557.63;;;5.14;100.00
52105;BME280;38103;42.776;23.112;2023-02-28T08:08:07;94520.41;;;4.82;100.00
52105;BME280;38103;42.776;23.112;2023-02-28T08:10:33;94561.22;;;5.13;100.00
52105;BME280;38103;42.776;23.112;2023-02-28T08:12:59;94570.38;;;5.17;100.00
52105;BME280;38103;42.776;23.112;2023-02-28T08:15:24;94550.38;;;4.94;100.00
52105;BME280;38103;42.776;23.112;2023-02-28T08:17:49;94572.22;;;5.01;100.00
52105;BME280;38103;42.776;23.112;2023-02-28T08:20:15;94572.63;;;5.20;100.00
52105;BME280;38103;42.776;23.112;2023-02-28T08:22:40;94574.50;;;5.27;100.00
52105;BME280;38103;42.776;23.112;2023-02-28T08:25:07;94576.13;;;5.28;100.00
52105;BME280;38103;42.776;23.112;2023-02-28T08:27:33;94571.00;;;5.19;100.00
52105;BME280;38103;42.776;23.112;2023-02-28T08:29:58;94571.09;;;5.11;100.00
52105;BME280;38103;42.776;23.112;2023-02-28T08:32:24;94573.97;;;5.16;100.00
52105;BME280;38103;42.776;23.112;2023-02-28T08:34:50;94572.63;;;5.42;100.00
52105;BME280;38103;42.776;23.112;2023-02-28T08:37:15;94551.78;;;5.34;100.00
52105;BME280;38103;42.776;23.112;2023-02-28T08:39:40;94568.00;;;5.22;100.00
52105;BME280;38103;42.776;23.112;2023-02-28T08:42:06;94576.25;;;5.41;100.00
52105;BME280;38103;42.776;23.112;2023-02-28T08:44:32;94561.78;;;5.45;100.00
52105;BME280;38103;42.776;23.112;2023-02-28T08:46:57;94571.41;;;5.38;100.00
52105;BME280;38103;42.776;23.112;2023-02-28T08:49:22;94570.66;;;5.66;100.00
52105;BME280;38103;42.776;23.112;2023-02-28T08:51:48;94572.50;;;5.73;100.00
52105;BME280;38103;42.776;23.112;2023-02-28T08:54:13;94567.91;;;5.53;100.00
52105;BME280;38103;42.776;23.112;2023-02-28T08:56:41;94568.28;;;5.72;100.00
52105;BME280;38103;42.776;23.112;2023-02-28T08:59:09;94567.38;;;5.86;100.00
52105;BME280;38103;42.776;23.112;2023-02-28T09:01:34;94565.00;;;5.91;100.00
52105;BME280;38103;42.776;23.112;2023-02-28T09:04:01;94562.78;;;5.66;100.00
52105;BME280;38103;42.776;23.112;2023-02-28T09:06:28;94572.41;;;5.59;100.00
52105;BME280;38103;42.776;23.112;2023-02-28T09:08:58;94562.28;;;5.56;100.00
52105;BME280;38103;42.776;23.112;2023-02-28T09:11:25;94528.16;;;5.34;100.00
52105;BME280;38103;42.776;23.112;2023-02-28T09:13:50;94564.16;;;5.40;100.00
52105;BME280;38103;42.776;23.112;2023-02-28T09:16:16;94562.28;;;5.56;100.00
52105;BME280;38103;42.776;23.112;2023-02-28T09:18:42;94561.78;;;5.45;100.00
52105;BME280;38103;42.776;23.112;2023-02-28T09:21:11;94565.16;;;5.61;100.00
52105;BME280;38103;42.776;23.112;2023-02-28T09:23:42;94566.88;;;5.32;100.00
52105;BME280;38103;42.776;23.112;2023-02-28T09:26:14;94563.91;;;5.35;100.00
52105;BME280;38103;42.776;23.112;2023-02-28T09:28:40;94535.94;;;5.20;100.00
52105;BME280;38103;42.776;23.112;2023-02-28T09:31:05;94569.44;;;5.47;100.00
52105;BME280;38103;42.776;23.112;2023-02-28T09:33:30;94563.22;;;5.48;100.00
52105;BME280;38103;42.776;23.112;2023-02-28T09:36:00;94560.66;;;5.55;100.00
52105;BME280;38103;42.776;23.112;2023-02-28T09:38:27;94559.13;;;5.67;100.00
52105;BME280;38103;42.776;23.112;2023-02-28T09:40:56;94560.41;;;5.72;100.00
52105;BME280;38103;42.776;23.112;2023-02-28T09:43:25;94547.53;;;5.77;100.00
52105;BME280;38103;42.776;23.112;2023-02-28T09:46:00;94541.00;;;5.95;100.00
52105;BME280;38103;42.776;23.112;2023-02-28T09:48:41;94551.38;;;6.03;100.00
52105;BME280;38103;42.776;23.112;2023-02-28T09:53:55;94534.59;;;6.04;100.00
52105;BME280;38103;42.776;23.112;2023-02-28T09:56:25;94546.13;;;6.03;100.00
52105;BME280;38103;42.776;23.112;2023-02-28T10:08:09;94528.00;;;6.08;100.00
52105;BME280;38103;42.776;23.112;2023-02-28T10:10:21;94535.34;;;6.20;100.00
52105;BME280;38103;42.776;23.112;2023-02-28T10:12:52;94526.06;;;6.24;100.00
52105;BME280;38103;42.776;23.112;2023-02-28T10:15:19;94524.84;;;6.20;100.00
52105;BME280;38103;42.776;23.112;2023-02-28T10:17:48;94527.69;;;6.25;100.00
52105;BME280;38103;42.776;23.112;2023-02-28T10:20:20;94519.63;;;6.26;100.00
52105;BME280;38103;42.776;23.112;2023-02-28T10:23:00;94516.88;;;6.42;100.00
52105;BME280;38103;42.776;23.112;2023-02-28T10:25:34;94512.66;;;6.47;100.00
52105;BME280;38103;42.776;23.112;2023-02-28T10:28:14;94518.59;;;6.56;100.00
52105;BME280;38103;42.776;23.112;2023-02-28T10:30:45;94512.16;;;6.66;100.00
52105;BME280;38103;42.776;23.112;2023-02-28T10:33:38;94513.41;;;6.84;100.00
52105;BME280;38103;42.776;23.112;2023-02-28T10:36:03;94501.75;;;7.07;100.00
52105;BME280;38103;42.776;23.112;2023-02-28T10:38:37;94505.00;;;7.09;100.00
52105;BME280;38103;42.776;23.112;2023-02-28T10:41:08;94499.16;;;7.20;100.00
52105;BME280;38103;42.776;23.112;2023-02-28T10:43:35;94495.34;;;7.30;100.00
52105;BME280;38103;42.776;23.112;2023-02-28T10:48:45;94490.91;;;7.64;100.00
52105;BME280;38103;42.776;23.112;2023-02-28T10:51:16;94480.78;;;7.47;100.00
52105;BME280;38103;42.776;23.112;2023-02-28T10:59:02;94467.03;;;7.73;100.00
52105;BME280;38103;42.776;23.112;2023-02-28T11:01:44;94469.03;;;7.84;100.00
52105;BME280;38103;42.776;23.112;2023-02-28T11:09:29;94464.56;;;8.05;100.00
52105;BME280;38103;42.776;23.112;2023-02-28T11:11:56;94445.53;;;7.96;100.00
52105;BME280;38103;42.776;23.112;2023-02-28T11:16:47;94454.03;;;8.05;100.00
52105;BME280;38103;42.776;23.112;2023-02-28T11:19:43;94446.50;;;8.15;100.00
52105;BME280;38103;42.776;23.112;2023-02-28T11:22:09;94449.50;;;8.26;100.00
52105;BME280;38103;42.776;23.112;2023-02-28T11:24:44;94445.81;;;8.41;100.00
52105;BME280;38103;42.776;23.112;2023-02-28T11:29:56;94441.78;;;8.38;100.00
52105;BME280;38103;42.776;23.112;2023-02-28T11:32:23;94442.16;;;8.42;100.00
52105;BME280;38103;42.776;23.112;2023-02-28T11:37:37;94435.72;;;8.37;100.00
52105;BME280;38103;42.776;23.112;2023-02-28T11:40:15;94436.72;;;8.36;100.00
52105;BME280;38103;42.776;23.112;2023-02-28T11:42:57;94443.47;;;8.19;100.00
52105;BME280;38103;42.776;23.112;2023-02-28T11:48:18;94436.78;;;8.16;100.00
52105;BME280;38103;42.776;23.112;2023-02-28T11:53:39;94434.97;;;8.16;100.00
52105;BME280;38103;42.776;23.112;2023-02-28T11:56:36;94426.44;;;8.14;100.00
52105;BME280;38103;42.776;23.112;2023-02-28T11:59:34;94433.75;;;8.19;100.00
52105;BME280;38103;42.776;23.112;2023-02-28T12:10:27;94428.41;;;8.33;100.00
52105;BME280;38103;42.776;23.112;2023-02-28T12:21:04;94418.88;;;8.38;100.00
52105;BME280;38103;42.776;23.112;2023-02-28T12:31:38;94423.13;;;8.40;100.00
52105;BME280;38103;42.776;23.112;2023-02-28T12:34:10;94377.22;;;8.22;100.00
52105;BME280;38103;42.776;23.112;2023-02-28T12:36:39;94414.38;;;8.53;100.00
52105;BME280;38103;42.776;23.112;2023-02-28T12:39:20;94417.38;;;8.56;100.00
52105;BME280;38103;42.776;23.112;2023-02-28T12:41:56;94413.53;;;8.66;100.00
52105;BME280;38103;42.776;23.112;2023-02-28T12:46:56;94410.84;;;8.73;100.00
52105;BME280;38103;42.776;23.112;2023-02-28T12:49:25;94407.75;;;8.82;100.00
52105;BME280;38103;42.776;23.112;2023-02-28T12:51:53;94409.16;;;8.85;100.00
52105;BME280;38103;42.776;23.112;2023-02-28T12:54:52;94406.03;;;8.63;100.00
52105;BME280;38103;42.776;23.112;2023-02-28T12:57:27;94415.34;;;8.65;100.00
52105;BME280;38103;42.776;23.112;2023-02-28T13:00:00;94377.31;;;8.41;100.00
52105;BME280;38103;42.776;23.112;2023-02-28T13:10:44;94390.19;;;8.69;100.00
52105;BME280;38103;42.776;23.112;2023-02-28T13:13:15;94382.72;;;8.59;100.00
52105;BME280;38103;42.776;23.112;2023-02-28T13:16:06;94400.25;;;8.79;100.00
52105;BME280;38103;42.776;23.112;2023-02-28T13:18:39;94347.97;;;8.37;100.00
52105;BME280;38103;42.776;23.112;2023-02-28T13:21:26;94385.03;;;8.81;100.00
52105;BME280;38103;42.776;23.112;2023-02-28T13:27:10;94399.41;;;8.86;100.00
52105;BME280;38103;42.776;23.112;2023-02-28T13:34:34;94376.81;;;8.71;100.00
52105;BME280;38103;42.776;23.112;2023-02-28T14:04:14;94360.97;;;8.71;100.00
52105;BME280;38103;42.776;23.112;2023-02-28T14:06:52;94353.91;;;8.65;100.00
52105;BME280;38103;42.776;23.112;2023-02-28T14:11:50;94364.97;;;8.80;100.00
52105;BME280;38103;42.776;23.112;2023-02-28T14:17:15;94362.94;;;8.82;100.00
52105;BME280;38103;42.776;23.112;2023-02-28T14:19:44;94362.09;;;8.82;100.00
52105;BME280;38103;42.776;23.112;2023-02-28T14:22:31;94370.31;;;8.67;100.00
52105;BME280;38103;42.776;23.112;2023-02-28T14:38:35;94368.19;;;7.90;100.00
52105;BME280;38103;42.776;23.112;2023-02-28T14:41:05;94363.78;;;7.70;100.00
52105;BME280;38103;42.776;23.112;2023-02-28T14:43:32;94367.44;;;7.63;100.00
52105;BME280;38103;42.776;23.112;2023-02-28T14:46:00;94370.28;;;7.68;100.00
52105;BME280;38103;42.776;23.112;2023-02-28T14:48:26;94360.53;;;7.68;100.00
52105;BME280;38103;42.776;23.112;2023-02-28T14:50:57;94363.81;;;7.57;100.00
52105;BME280;38103;42.776;23.112;2023-02-28T14:53:27;94365.84;;;7.48;100.00
52105;BME280;38103;42.776;23.112;2023-02-28T14:55:53;94362.59;;;7.53;100.00
52105;BME280;38103;42.776;23.112;2023-02-28T15:00:49;94362.59;;;7.32;100.00
52105;BME280;38103;42.776;23.112;2023-02-28T15:05:53;94366.25;;;7.24;100.00
52105;BME280;38103;42.776;23.112;2023-02-28T15:08:19;94374.78;;;7.13;100.00
52105;BME280;38103;42.776;23.112;2023-02-28T15:10:59;94383.66;;;6.98;100.00
52105;BME280;38103;42.776;23.112;2023-02-28T15:16:14;94382.81;;;6.91;100.00
52105;BME280;38103;42.776;23.112;2023-02-28T15:18:46;94375.75;;;6.85;100.00
52105;BME280;38103;42.776;23.112;2023-02-28T15:21:41;94381.59;;;6.73;100.00
52105;BME280;38103;42.776;23.112;2023-02-28T15:26:54;94393.47;;;6.55;100.00
52105;BME280;38103;42.776;23.112;2023-02-28T15:29:23;94351.13;;;6.16;100.00
52105;BME280;38103;42.776;23.112;2023-02-28T15:32:00;94389.19;;;6.41;100.00
52105;BME280;38103;42.776;23.112;2023-02-28T15:34:37;94395.44;;;6.40;100.00
52105;BME280;38103;42.776;23.112;2023-02-28T15:39:58;94401.66;;;6.25;100.00
52105;BME280;38103;42.776;23.112;2023-02-28T15:42:29;94387.50;;;6.19;100.00
52105;BME280;38103;42.776;23.112;2023-02-28T15:44:56;94395.34;;;6.12;100.00
52105;BME280;38103;42.776;23.112;2023-02-28T15:47:24;94357.00;;;5.76;100.00
52105;BME280;38103;42.776;23.112;2023-02-28T15:49:56;94409.56;;;5.96;100.00
52105;BME280;38103;42.776;23.112;2023-02-28T15:52:40;94365.41;;;5.64;100.00
52105;BME280;38103;42.776;23.112;2023-02-28T15:57:45;94419.19;;;5.82;100.00
52105;BME280;38103;42.776;23.112;2023-02-28T16:00:13;94416.16;;;5.78;100.00
52105;BME280;38103;42.776;23.112;2023-02-28T16:02:40;94416.28;;;5.70;100.00